Flight Track Log - Related Links

Times and Time Zones

All times are in EDT time to prevent confusion due to time zone crossing. See the FLG3861 flight status page for this flight to view local times or setup timezone preferences in your user account.

Time Position Orientation Groundspeed Altitude Reporting Facility
EDT Latitude Longitude Course Direction KTS MPH feet Rate Location/Type
Fri 09:37:26 PM 42.2261 -83.3531 33° Northeast 164 189 1,400  Level Cleveland Center
Fri 09:38:15 PM 42.2597 -83.3239 33° Northeast 193 222 3,700 2,321 Climbing Cleveland Center
Fri 09:39:12 PM 42.2719 -83.2589 76° East 211 243 5,500 2,200 Climbing Cleveland Center
Fri 09:39:15 PM 42.2725 -83.2383 88° East 257 296 5,900 2,656 Climbing Cleveland Center
Fri 09:40:13 PM 42.2792 -83.1533 84° East 264 304 8,200 2,319 Climbing Cleveland Center
Fri 09:41:14 PM 42.2861 -83.0408 85° East 294 338 10,500 1,561 Climbing Cleveland Center
Fri 09:42:16 PM 42.2956 -82.9028 85° East 370 426 11,400 1,463 Climbing Cleveland Center
Fri 09:43:17 PM 42.3183 -82.7603 78° East 386 444 13,500 1,854 Climbing Cleveland Center
Fri 09:44:19 PM 42.3422 -82.6131 78° East 397 457 15,200 1,854 Climbing Cleveland Center
Fri 09:45:20 PM 42.3686 -82.4306 79° East 413 475 17,300 1,610 Climbing Cleveland Center
Fri 09:46:22 PM 42.3608 -82.2731 94° East 422 486 18,500 1,171 Climbing Cleveland Center
Fri 09:47:23 PM 42.3539 -82.1019 93° East 435 501 19,700 984 Climbing Cleveland Center
Fri 09:48:24 PM 42.3467 -81.9294 93° East 454 522 20,500 780 Climbing Cleveland Center
Fri 09:49:26 PM 42.3386 -81.7511 93° East 465 535 21,300 634 Climbing Cleveland Center
Fri 09:50:27 PM 42.3306 -81.5672 93° East 482 555 21,800 537 Climbing Cleveland Center
Fri 09:51:29 PM 42.3219 -81.3814 94° East 486 559 22,400 585 Climbing Cleveland Center
Fri 09:52:30 PM 42.3122 -81.1892 94° East 501 577 23,000 590 Climbing Cleveland Center
Fri 09:53:31 PM 42.3014 -80.9961 94° East 505 581 23,600 537 Climbing Cleveland Center
Fri 09:54:33 PM 42.2922 -80.8006 94° East 513 590 24,100 537 Climbing Cleveland Center
Fri 09:55:34 PM 42.2933 -80.6067 89° East 514 592 24,700 590 Climbing Cleveland Center
Fri 09:56:35 PM 42.2933 -80.4081 90° East 522 601 25,300 537 Climbing Cleveland Center
Fri 09:57:37 PM 42.2931 -80.2078 90° East 525 604 25,800 537 Climbing Cleveland Center
Fri 09:58:38 PM 42.2919 -79.9803 90° East 525 604 26,400 537 Climbing Cleveland Center
Fri 09:59:40 PM 42.2917 -79.7931 90° East 526 605 26,900 293 Climbing Cleveland Center
Fri 10:00:41 PM 42.2894 -79.5925 91° East 535 616 27,000 49 Climbing Cleveland Center
Fri 10:01:43 PM 42.2886 -79.3886 90° East 542 624 27,000  Level Cleveland Center
Fri 10:02:44 PM 42.2861 -79.1822 91° East 548 631 27,000  Level Cleveland Center
Fri 10:03:45 PM 42.2828 -78.9756 91° East 550 633 27,000  Level Cleveland Center
Fri 10:04:47 PM 42.2811 -78.7444 90° East 553 636 27,000  Level Cleveland Center
Fri 10:05:48 PM 42.2781 -78.5356 91° East 554 638 27,000  Level Cleveland Center
Fri 10:06:50 PM 42.2742 -78.3275 91° East 555 639 27,000 -49 Level Cleveland Center
Fri 10:07:51 PM 42.2706 -78.1194 91° East 556 640 26,900 -585 Descending Cleveland Center
Fri 10:08:53 PM 42.2653 -77.8733 92° East 555 639 25,800 -1,268 Descending Cleveland Center
Fri 10:09:54 PM 42.2606 -77.6725 92° East 548 631 24,300 -1,610 Descending Cleveland Center
Fri 10:10:56 PM 42.2558 -77.4839 92° East 514 592 22,500 -1,902 Descending Cleveland Center
Fri 10:11:57 PM 42.2514 -77.3036 92° East 491 565 20,400 -2,098 Descending Cleveland Center
Fri 10:12:59 PM 42.2458 -77.1286 92° East 473 544 18,200 -2,436 Descending Cleveland Center
Fri 10:13:38 PM 42.2433 -76.9978 91° East 468 539 16,300 -2,788 Descending New York Center
Fri 10:14:38 PM 42.2386 -76.8431 92° East 439 505 13,600 -2,550 Descending New York Center
Fri 10:15:38 PM 42.2328 -76.7111 93° East 415 478 11,200 -1,800 Descending New York Center
Fri 10:16:38 PM 42.2275 -76.5678 93° East 376 433 10,000 -1,400 Descending New York Center
Fri 10:17:38 PM 42.2225 -76.4525 93° East 337 388 8,400 -1,750 Descending New York Center
Fri 10:18:38 PM 42.1983 -76.3467 107° East 306 352 6,500 -1,450 Descending New York Center
Fri 10:19:38 PM 42.1633 -76.2486 116° Southeast 295 339 5,500 -750 Descending New York Center
Fri 10:20:38 PM 42.1283 -76.1508 116° Southeast 295 339 5,000 -350 Descending New York Center
Fri 10:21:38 PM 42.0931 -76.0556 116° Southeast 295 339 4,800 -400 Descending New York Center
Fri 10:22:38 PM 42.0572 -75.9744 121° Southeast 278 320 4,200 -400 Descending New York Center
Fri 10:23:38 PM 42.0244 -75.9133 126° Southeast 245 282 4,000 -100 Descending New York Center
Fri 10:24:38 PM 42.0047 -75.8364 109° East 197 227 4,000 -50 Level New York Center
Fri 10:25:38 PM 42.0500 -75.8483 349° North 72 83 3,900 -50 Descending New York Center
Fri 10:26:38 PM 42.0900 -75.8850 326° Northwest 117 135 3,900 -250 Level New York Center
Fri 10:27:38 PM 42.1283 -75.9158 329° Northwest 148 170 3,400 -500 Descending New York Center
Fri 10:29:00 PM 42.2000 -75.9667 334° Northwest  Level FlightAware Approximate
Fri 10:36:00 PM 42.2084 -75.9796 334° Northwest  Level Estimated

Login

Don't have an account? Register now (free) for customized features, flight alerts, and more!